createdAt,value
2022-11-24T00:00:59.161Z,986.22
2022-11-24T00:01:59.190Z,986.26
2022-11-24T00:02:59.217Z,986.23
2022-11-24T00:03:59.084Z,986.26
2022-11-24T00:04:59.058Z,986.31
2022-11-24T00:05:59.040Z,986.30
2022-11-24T00:06:59.007Z,986.29
2022-11-24T00:07:58.993Z,986.26
2022-11-24T00:08:58.962Z,986.27
2022-11-24T00:09:58.927Z,986.28
2022-11-24T00:10:58.901Z,986.33
2022-11-24T00:11:58.899Z,986.37
2022-11-24T00:12:58.854Z,986.35
2022-11-24T00:13:58.839Z,986.33
2022-11-24T00:14:58.803Z,986.39
2022-11-24T00:15:58.802Z,986.32
2022-11-24T00:16:58.810Z,986.38
2022-11-24T00:17:58.731Z,986.37
2022-11-24T00:18:58.707Z,986.35
2022-11-24T00:19:58.683Z,986.39
2022-11-24T00:20:58.667Z,986.39
2022-11-24T00:21:58.629Z,986.39
2022-11-24T00:22:58.619Z,986.35
2022-11-24T00:23:58.582Z,986.41
2022-11-24T00:24:58.568Z,986.39
2022-11-24T00:25:58.531Z,986.36
2022-11-24T00:26:58.510Z,986.39
2022-11-24T00:27:58.487Z,986.39
2022-11-24T00:28:58.455Z,986.39
2022-11-24T00:29:58.429Z,986.38
2022-11-24T00:30:58.453Z,986.41
2022-11-24T00:31:58.387Z,986.44
2022-11-24T00:32:58.355Z,986.40
2022-11-24T00:33:58.334Z,986.41
2022-11-24T00:34:58.306Z,986.39
2022-11-24T00:35:58.283Z,986.38
2022-11-24T00:36:58.258Z,986.44
2022-11-24T00:37:58.241Z,986.41
2022-11-24T00:38:58.213Z,986.40
2022-11-24T00:39:58.185Z,986.40
2022-11-24T00:40:58.155Z,986.41
2022-11-24T00:41:58.138Z,986.40
2022-11-24T00:42:58.128Z,986.42
2022-11-24T00:43:58.097Z,986.48
2022-11-24T00:44:58.090Z,986.44
2022-11-24T00:45:58.157Z,986.41
2022-11-24T00:46:58.118Z,986.43
2022-11-24T00:47:57.987Z,986.49
2022-11-24T00:48:57.958Z,986.48
2022-11-24T00:49:57.941Z,986.48
2022-11-24T00:50:57.912Z,986.47
2022-11-24T00:51:57.889Z,986.49
2022-11-24T00:52:57.861Z,986.50
2022-11-24T00:53:57.835Z,986.55
2022-11-24T00:54:57.813Z,986.56
2022-11-24T00:55:57.793Z,986.61
2022-11-24T00:56:57.763Z,986.55
2022-11-24T00:57:57.741Z,986.60
2022-11-24T00:58:57.715Z,986.60
2022-11-24T00:59:57.693Z,986.62
2022-11-24T01:00:57.741Z,986.63
2022-11-24T01:01:57.686Z,986.64
2022-11-24T01:02:57.631Z,986.67
2022-11-24T01:03:57.596Z,986.65
2022-11-24T01:04:57.564Z,986.68
2022-11-24T01:05:57.537Z,986.68
2022-11-24T01:06:57.513Z,986.73
2022-11-24T01:07:57.491Z,986.72
2022-11-24T01:08:57.474Z,986.72
2022-11-24T01:09:57.442Z,986.74
2022-11-24T01:10:57.418Z,986.80
2022-11-24T01:11:57.404Z,986.84
2022-11-24T01:12:57.377Z,986.82
2022-11-24T01:13:57.349Z,986.87
2022-11-24T01:14:57.318Z,986.84
2022-11-24T01:15:57.337Z,986.83
2022-11-24T01:16:57.269Z,986.84
2022-11-24T01:17:57.246Z,986.83
2022-11-24T01:18:57.223Z,986.85
2022-11-24T01:19:57.203Z,986.95
2022-11-24T01:20:57.173Z,986.94
2022-11-24T01:21:57.155Z,986.92
2022-11-24T01:22:57.121Z,986.98
2022-11-24T01:23:57.098Z,986.96
2022-11-24T01:24:57.083Z,986.98
2022-11-24T01:25:57.049Z,986.98
2022-11-24T01:26:57.024Z,986.99
2022-11-24T01:27:57.022Z,987.00
2022-11-24T01:28:56.992Z,986.99
2022-11-24T01:29:56.946Z,987.04
2022-11-24T01:30:56.957Z,987.08
2022-11-24T01:31:56.901Z,987.09
2022-11-24T01:32:56.873Z,987.04
2022-11-24T01:33:56.853Z,987.06
2022-11-24T01:34:56.829Z,987.05
2022-11-24T01:35:56.831Z,987.09
2022-11-24T01:36:56.779Z,987.10
2022-11-24T01:37:56.758Z,987.15
2022-11-24T01:38:56.734Z,987.16
2022-11-24T01:39:56.707Z,987.22
2022-11-24T01:40:56.691Z,987.22
2022-11-24T01:41:56.659Z,987.27
2022-11-24T01:42:56.635Z,987.22
2022-11-24T01:43:56.606Z,987.27
2022-11-24T01:44:56.585Z,987.35
2022-11-24T01:45:56.600Z,987.28
2022-11-24T01:46:56.535Z,987.36
2022-11-24T01:47:56.510Z,987.37
2022-11-24T01:48:56.493Z,987.40
2022-11-24T01:49:56.456Z,987.39
2022-11-24T01:50:56.439Z,987.39
2022-11-24T01:51:56.417Z,987.41
2022-11-24T01:52:56.390Z,987.46
2022-11-24T01:53:56.368Z,987.44
2022-11-24T01:54:56.339Z,987.43
2022-11-24T01:55:56.336Z,987.39
2022-11-24T01:56:56.291Z,987.38
2022-11-24T01:57:56.263Z,987.40
2022-11-24T01:58:56.246Z,987.37
2022-11-24T01:59:56.219Z,987.45
2022-11-24T02:00:56.205Z,987.49
2022-11-24T02:01:56.248Z,987.44
2022-11-24T02:02:56.197Z,987.43
2022-11-24T02:03:56.117Z,987.38
2022-11-24T02:04:56.092Z,987.34
2022-11-24T02:05:56.112Z,987.41
2022-11-24T02:06:56.049Z,987.38
2022-11-24T02:07:56.073Z,987.37
2022-11-24T02:08:55.994Z,987.40
2022-11-24T02:09:55.975Z,987.45
2022-11-24T02:10:55.957Z,987.50
2022-11-24T02:11:55.920Z,987.46
2022-11-24T02:12:55.899Z,987.43
2022-11-24T02:13:55.874Z,987.44
2022-11-24T02:14:55.855Z,987.41
2022-11-24T02:15:55.898Z,987.42
2022-11-24T02:16:55.814Z,987.44
2022-11-24T02:17:55.775Z,987.45
2022-11-24T02:18:55.750Z,987.40
2022-11-24T02:19:55.736Z,987.42
2022-11-24T02:20:55.708Z,987.39
2022-11-24T02:21:55.677Z,987.40
2022-11-24T02:22:55.657Z,987.43
2022-11-24T02:23:55.640Z,987.44
2022-11-24T02:24:55.605Z,987.45
2022-11-24T02:25:55.604Z,987.41
2022-11-24T02:26:55.557Z,987.41
2022-11-24T02:27:55.535Z,987.43
2022-11-24T02:28:55.505Z,987.34
2022-11-24T02:29:55.486Z,987.36
2022-11-24T02:30:55.506Z,987.38
2022-11-24T02:31:55.436Z,987.46
2022-11-24T02:32:55.422Z,987.44
2022-11-24T02:33:55.390Z,987.41
2022-11-24T02:34:55.363Z,987.40
2022-11-24T02:35:55.339Z,987.41
2022-11-24T02:36:55.313Z,987.39
2022-11-24T02:37:55.298Z,987.42
2022-11-24T02:38:55.263Z,987.42
2022-11-24T02:39:55.244Z,987.43
2022-11-24T02:40:55.223Z,987.40
2022-11-24T02:41:55.189Z,987.51
2022-11-24T02:42:55.175Z,987.44
2022-11-24T02:43:55.146Z,987.46
2022-11-24T02:44:55.120Z,987.47
2022-11-24T02:45:55.139Z,987.40
2022-11-24T02:46:55.076Z,987.39
2022-11-24T02:47:55.057Z,987.42
2022-11-24T02:48:55.022Z,987.36
2022-11-24T02:49:55.002Z,987.34
2022-11-24T02:50:54.976Z,987.33
2022-11-24T02:51:54.957Z,987.35
2022-11-24T02:52:54.922Z,987.34
2022-11-24T02:53:54.904Z,987.37
2022-11-24T02:54:54.882Z,987.37
2022-11-24T02:55:54.851Z,987.37
2022-11-24T02:56:54.828Z,987.34
2022-11-24T02:57:54.796Z,987.30
2022-11-24T02:58:54.779Z,987.34
2022-11-24T02:59:54.759Z,987.33
2022-11-24T03:00:54.737Z,987.35
2022-11-24T03:01:54.790Z,987.33
2022-11-24T03:02:54.767Z,987.34
2022-11-24T03:03:54.657Z,987.39
2022-11-24T03:04:54.627Z,987.41
2022-11-24T03:05:54.606Z,987.42
2022-11-24T03:06:54.580Z,987.45
2022-11-24T03:07:54.601Z,987.51
2022-11-24T03:08:54.531Z,987.49
2022-11-24T03:09:54.511Z,987.46
2022-11-24T03:10:54.497Z,987.46
2022-11-24T03:11:54.461Z,987.44
2022-11-24T03:12:54.432Z,987.48
2022-11-24T03:13:54.411Z,987.47
2022-11-24T03:14:54.385Z,987.47
2022-11-24T03:15:54.467Z,987.49
2022-11-24T03:16:54.350Z,987.46
2022-11-24T03:17:54.322Z,987.41
2022-11-24T03:18:54.287Z,987.45
2022-11-24T03:19:54.258Z,987.35
2022-11-24T03:20:54.237Z,987.42
2022-11-24T03:21:54.214Z,987.47
2022-11-24T03:22:54.191Z,987.49
2022-11-24T03:23:54.164Z,987.55
2022-11-24T03:24:54.136Z,987.54
2022-11-24T03:25:54.112Z,987.57
2022-11-24T03:26:54.086Z,987.59
2022-11-24T03:27:54.062Z,987.57
2022-11-24T03:28:54.042Z,987.58
2022-11-24T03:29:54.013Z,987.63
2022-11-24T03:30:54.060Z,987.57
2022-11-24T03:31:53.966Z,987.59
2022-11-24T03:32:53.937Z,987.56
2022-11-24T03:33:53.918Z,987.61
2022-11-24T03:34:53.892Z,987.60
2022-11-24T03:35:53.868Z,987.57
2022-11-24T03:36:53.838Z,987.55
2022-11-24T03:37:53.814Z,987.52
2022-11-24T03:38:53.798Z,987.53
2022-11-24T03:39:53.772Z,987.53
2022-11-24T03:40:53.756Z,987.56
2022-11-24T03:41:53.719Z,987.59
2022-11-24T03:42:53.697Z,987.57
2022-11-24T03:43:53.669Z,987.61
2022-11-24T03:44:53.648Z,987.66
2022-11-24T03:45:53.737Z,987.61
2022-11-24T03:46:53.610Z,987.62
2022-11-24T03:47:53.571Z,987.58
2022-11-24T03:48:53.563Z,987.58
2022-11-24T03:49:53.521Z,987.58
2022-11-24T03:50:53.498Z,987.59
2022-11-24T03:51:53.479Z,987.53
2022-11-24T03:52:53.452Z,987.56
2022-11-24T03:53:53.433Z,987.48
2022-11-24T03:54:53.397Z,987.52
2022-11-24T03:55:53.377Z,987.51
2022-11-24T03:56:53.372Z,987.47
2022-11-24T03:57:53.331Z,987.48
2022-11-24T03:58:53.308Z,987.38
2022-11-24T03:59:53.275Z,987.41
2022-11-24T04:00:53.255Z,987.41
2022-11-24T04:01:53.278Z,987.44
2022-11-24T04:02:53.274Z,987.47
2022-11-24T04:03:53.185Z,987.51
2022-11-24T04:04:53.150Z,987.50
2022-11-24T04:05:53.127Z,987.51
2022-11-24T04:06:53.126Z,987.55
2022-11-24T04:07:53.160Z,987.54
2022-11-24T04:08:53.064Z,987.55
2022-11-24T04:09:53.031Z,987.60
2022-11-24T04:10:53.004Z,987.66
2022-11-24T04:11:52.978Z,987.70
2022-11-24T04:12:52.969Z,987.75
2022-11-24T04:13:52.938Z,987.72
2022-11-24T04:14:52.903Z,987.78
2022-11-24T04:15:52.992Z,987.73
2022-11-24T04:16:52.863Z,987.75
2022-11-24T04:17:52.829Z,987.72
2022-11-24T04:18:52.809Z,987.74
2022-11-24T04:19:52.784Z,987.74
2022-11-24T04:20:52.758Z,987.76
2022-11-24T04:21:52.733Z,987.81
2022-11-24T04:22:52.713Z,987.83
2022-11-24T04:23:52.694Z,987.81
2022-11-24T04:24:52.663Z,987.81
2022-11-24T04:25:52.638Z,987.84
2022-11-24T04:26:52.609Z,987.90
2022-11-24T04:27:52.586Z,987.88
2022-11-24T04:28:52.559Z,987.91
2022-11-24T04:29:52.535Z,987.93
2022-11-24T04:30:52.553Z,987.97
2022-11-24T04:31:52.489Z,988.04
2022-11-24T04:32:52.457Z,988.02
2022-11-24T04:33:52.433Z,988.05
2022-11-24T04:34:52.410Z,988.05
2022-11-24T04:35:52.393Z,988.05
2022-11-24T04:36:52.372Z,988.06
2022-11-24T04:37:52.352Z,988.03
2022-11-24T04:39:22.719Z,988.06
2022-11-24T04:39:52.287Z,988.02
2022-11-24T04:40:52.259Z,988.07
2022-11-24T04:41:52.241Z,988.07
2022-11-24T04:42:52.221Z,988.09
2022-11-24T04:43:52.186Z,988.12
2022-11-24T04:44:52.164Z,988.13
2022-11-24T04:45:52.145Z,988.09
2022-11-24T04:46:52.171Z,988.14
2022-11-24T04:47:52.128Z,988.14
2022-11-24T04:48:52.072Z,988.18
2022-11-24T04:49:52.046Z,988.20
2022-11-24T04:50:52.014Z,988.24
2022-11-24T04:51:51.997Z,988.24
2022-11-24T04:52:51.970Z,988.24
2022-11-24T04:53:51.983Z,988.27
2022-11-24T04:54:51.927Z,988.24
2022-11-24T04:55:51.898Z,988.30
2022-11-24T04:56:51.877Z,988.33
2022-11-24T04:57:51.867Z,988.29
2022-11-24T04:58:51.829Z,988.31
2022-11-24T04:59:51.810Z,988.37
2022-11-24T05:00:51.775Z,988.37
2022-11-24T05:01:51.845Z,988.39
2022-11-24T05:02:51.722Z,988.39
2022-11-24T05:03:51.776Z,988.46
2022-11-24T05:04:51.696Z,988.44
2022-11-24T05:05:51.674Z,988.45
2022-11-24T05:06:51.637Z,988.43
2022-11-24T05:07:51.658Z,988.49
2022-11-24T05:08:51.582Z,988.49
2022-11-24T05:09:59.329Z,988.54
2022-11-24T05:10:51.536Z,988.53
2022-11-24T05:11:51.505Z,988.53
2022-11-24T05:12:51.553Z,988.55
2022-11-24T05:13:51.455Z,988.57
2022-11-24T05:14:51.439Z,988.55
2022-11-24T05:15:51.472Z,988.52
2022-11-24T05:16:51.391Z,988.59
2022-11-24T05:17:51.358Z,988.59
2022-11-24T05:18:51.344Z,988.58
2022-11-24T05:19:51.318Z,988.54
2022-11-24T05:20:51.315Z,988.51
2022-11-24T05:21:51.280Z,988.54
2022-11-24T05:22:51.257Z,988.62
2022-11-24T05:23:51.214Z,988.61
2022-11-24T05:24:51.192Z,988.63
2022-11-24T05:25:51.169Z,988.66
2022-11-24T05:26:51.148Z,988.67
2022-11-24T05:27:51.116Z,988.69
2022-11-24T05:28:51.098Z,988.63
2022-11-24T05:29:51.066Z,988.65
2022-11-24T05:30:51.047Z,988.62
2022-11-24T05:31:51.060Z,988.64
2022-11-24T05:32:51.002Z,988.68
2022-11-24T05:33:50.967Z,988.68
2022-11-24T05:34:50.955Z,988.71
2022-11-24T05:35:50.924Z,988.71
2022-11-24T05:36:50.900Z,988.70
2022-11-24T05:37:50.872Z,988.77
2022-11-24T05:38:50.851Z,988.77
2022-11-24T05:39:50.828Z,988.73
2022-11-24T05:40:50.803Z,988.75
2022-11-24T05:41:50.780Z,988.74
2022-11-24T05:42:50.765Z,988.73
2022-11-24T05:43:50.731Z,988.75
2022-11-24T05:44:50.710Z,988.78
2022-11-24T05:45:50.677Z,988.76
2022-11-24T05:46:50.718Z,988.77
2022-11-24T05:47:50.627Z,988.78
2022-11-24T05:48:50.623Z,988.81
2022-11-24T05:49:50.582Z,988.82
2022-11-24T05:50:50.565Z,988.87
2022-11-24T05:51:50.529Z,988.88
2022-11-24T05:52:50.515Z,988.91
2022-11-24T05:53:50.490Z,988.95
2022-11-24T05:54:50.463Z,988.91
2022-11-24T05:55:50.431Z,988.91
2022-11-24T05:56:50.416Z,988.91
2022-11-24T05:57:50.384Z,988.95
2022-11-24T05:58:50.398Z,988.93
2022-11-24T05:59:50.347Z,988.97
2022-11-24T06:00:50.325Z,989.01
2022-11-24T06:01:50.418Z,989.03
2022-11-24T06:02:50.419Z,989.05
2022-11-24T06:03:50.246Z,989.03
2022-11-24T06:04:50.219Z,989.09
2022-11-24T06:05:50.188Z,989.15
2022-11-24T06:06:50.171Z,989.14
2022-11-24T06:07:50.187Z,989.09
2022-11-24T06:08:50.139Z,989.11
2022-11-24T06:09:50.093Z,989.12
2022-11-24T06:10:50.079Z,989.03
2022-11-24T06:11:50.051Z,989.01
2022-11-24T06:12:50.031Z,989.01
2022-11-24T06:13:50.104Z,988.98
2022-11-24T06:14:49.983Z,988.96
2022-11-24T06:15:49.945Z,988.96
2022-11-24T06:16:50.008Z,988.96
2022-11-24T06:17:49.896Z,989.00
2022-11-24T06:18:49.894Z,988.96
2022-11-24T06:19:49.849Z,988.90
2022-11-24T06:21:09.863Z,988.89
2022-11-24T06:21:49.803Z,988.83
2022-11-24T06:22:49.781Z,988.87
2022-11-24T06:23:49.754Z,988.88
2022-11-24T06:24:49.732Z,988.87
2022-11-24T06:25:51.631Z,988.87
2022-11-24T06:26:49.683Z,988.87
2022-11-24T06:27:49.656Z,988.83
2022-11-24T06:28:49.641Z,988.91
2022-11-24T06:29:49.604Z,988.95
2022-11-24T06:30:49.599Z,988.88
2022-11-24T06:31:49.571Z,988.89
2022-11-24T06:32:50.187Z,988.91
2022-11-24T06:33:49.518Z,988.94
2022-11-24T06:34:49.494Z,988.97
2022-11-24T06:35:49.460Z,988.97
2022-11-24T06:36:49.441Z,989.02
2022-11-24T06:37:49.408Z,989.05
2022-11-24T06:38:49.396Z,989.00
2022-11-24T06:39:49.359Z,989.10
2022-11-24T06:40:49.350Z,989.10
2022-11-24T06:41:49.318Z,989.10
2022-11-24T06:42:49.297Z,989.15
2022-11-24T06:43:49.263Z,989.10
2022-11-24T06:44:49.246Z,989.17
2022-11-24T06:45:49.306Z,989.16
2022-11-24T06:46:49.213Z,989.14
2022-11-24T06:47:49.169Z,989.18
2022-11-24T06:48:49.160Z,989.21
2022-11-24T06:49:49.119Z,989.18
2022-11-24T06:50:49.101Z,989.15
2022-11-24T06:51:49.068Z,989.11
2022-11-24T06:52:49.051Z,989.16
2022-11-24T06:53:49.023Z,989.09
2022-11-24T06:54:49.004Z,989.16
2022-11-24T06:55:48.975Z,989.16
2022-11-24T06:56:49.257Z,989.12
2022-11-24T06:57:48.923Z,989.11
2022-11-24T06:58:48.909Z,989.16
2022-11-24T06:59:48.874Z,989.10
2022-11-24T07:00:48.906Z,989.11
2022-11-24T07:01:48.830Z,989.15
2022-11-24T07:02:48.847Z,989.16
2022-11-24T07:03:48.793Z,989.17
2022-11-24T07:04:48.759Z,989.13
2022-11-24T07:05:48.733Z,989.16
2022-11-24T07:06:48.710Z,989.13
2022-11-24T07:07:50.815Z,989.14
2022-11-24T07:08:48.662Z,989.17
2022-11-24T07:09:48.634Z,989.21
2022-11-24T07:10:48.624Z,989.16
2022-11-24T07:11:48.584Z,989.24
2022-11-24T07:12:48.562Z,989.26
2022-11-24T07:13:48.532Z,989.27
2022-11-24T07:14:48.520Z,989.27
2022-11-24T07:15:48.485Z,989.31
2022-11-24T07:16:48.529Z,989.32
2022-11-24T07:17:48.433Z,989.30
2022-11-24T07:18:48.421Z,989.35
2022-11-24T07:19:48.384Z,989.34
2022-11-24T07:20:48.374Z,989.33
2022-11-24T07:21:48.343Z,989.31
2022-11-24T07:22:48.316Z,989.35
2022-11-24T07:23:48.296Z,989.35
2022-11-24T07:24:48.269Z,989.42
2022-11-24T07:25:48.250Z,989.47
2022-11-24T07:26:48.219Z,989.54
2022-11-24T07:27:48.194Z,989.48
2022-11-24T07:28:48.168Z,989.54
2022-11-24T07:29:48.139Z,989.56
2022-11-24T07:30:48.124Z,989.60
2022-11-24T07:31:48.220Z,989.59
2022-11-24T07:32:48.068Z,989.59
2022-11-24T07:33:48.059Z,989.60
2022-11-24T07:34:48.032Z,989.58
2022-11-24T07:35:48.000Z,989.63
2022-11-24T07:36:47.972Z,989.63
2022-11-24T07:37:47.944Z,989.65
2022-11-24T07:38:47.932Z,989.61
2022-11-24T07:39:47.895Z,989.66
2022-11-24T07:40:47.889Z,989.65
2022-11-24T07:41:47.853Z,989.63
2022-11-24T07:42:47.823Z,989.68
2022-11-24T07:43:47.816Z,989.64
2022-11-24T07:44:47.794Z,989.59
2022-11-24T07:45:47.785Z,989.65
2022-11-24T07:46:47.731Z,989.63
2022-11-24T07:47:47.702Z,989.65
2022-11-24T07:48:47.696Z,989.65
2022-11-24T07:49:47.664Z,989.67
2022-11-24T07:50:52.501Z,989.71
2022-11-24T07:51:47.604Z,989.73
2022-11-24T07:52:47.583Z,989.75
2022-11-24T07:53:47.567Z,989.78
2022-11-24T07:54:47.533Z,989.77
2022-11-24T07:55:47.503Z,989.80
2022-11-24T07:56:47.482Z,989.80
2022-11-24T07:57:47.453Z,989.82
2022-11-24T07:58:52.644Z,989.87
2022-11-24T07:59:47.403Z,989.89
2022-11-24T08:00:47.393Z,989.90
2022-11-24T08:01:47.410Z,989.90
2022-11-24T08:02:47.341Z,989.93
2022-11-24T08:03:47.392Z,989.87
2022-11-24T08:04:47.287Z,989.88
2022-11-24T08:06:16.073Z,989.81
2022-11-24T08:06:47.762Z,989.88
2022-11-24T08:07:47.259Z,989.88
2022-11-24T08:08:47.191Z,989.84
2022-11-24T08:09:47.165Z,989.92
2022-11-24T08:10:47.164Z,989.95
2022-11-24T08:11:47.120Z,989.92
2022-11-24T08:12:47.091Z,989.93
2022-11-24T08:13:47.067Z,990.02
2022-11-24T08:14:47.044Z,990.02
2022-11-24T08:15:47.022Z,990.02
2022-11-24T08:16:47.134Z,990.03
2022-11-24T08:17:46.973Z,990.02
2022-11-24T08:18:46.951Z,990.07
2022-11-24T08:19:46.923Z,990.02
2022-11-24T08:20:46.905Z,990.02
2022-11-24T08:21:46.872Z,990.03
2022-11-24T08:22:46.861Z,990.01
2022-11-24T08:23:46.825Z,990.05
2022-11-24T08:24:46.805Z,990.05
2022-11-24T08:25:46.775Z,990.05
2022-11-24T08:26:46.758Z,990.03
2022-11-24T08:27:46.730Z,990.05
2022-11-24T08:28:46.708Z,990.08
2022-11-24T08:29:46.678Z,990.13
2022-11-24T08:30:46.663Z,990.09
2022-11-24T08:31:46.705Z,990.15
2022-11-24T08:32:46.611Z,990.10
2022-11-24T08:33:46.593Z,990.13
2022-11-24T08:34:46.563Z,990.14
2022-11-24T08:35:46.539Z,990.11
2022-11-24T08:36:46.513Z,990.10
2022-11-24T08:37:46.486Z,990.11
2022-11-24T08:38:46.507Z,990.09
2022-11-24T08:39:46.448Z,990.12
2022-11-24T08:40:46.424Z,990.13
2022-11-24T08:41:46.393Z,990.14
2022-11-24T08:42:46.368Z,990.09
2022-11-24T08:43:46.342Z,990.10
2022-11-24T08:44:46.323Z,990.12
2022-11-24T08:45:46.369Z,990.14
2022-11-24T08:46:46.275Z,990.18
2022-11-24T08:47:46.249Z,990.20
2022-11-24T08:48:46.269Z,990.25
2022-11-24T08:49:46.199Z,990.24
2022-11-24T08:50:46.180Z,990.25
2022-11-24T08:51:46.149Z,990.29
2022-11-24T08:52:46.132Z,990.27
2022-11-24T08:53:46.114Z,990.27
2022-11-24T08:54:46.084Z,990.36
2022-11-24T08:55:46.050Z,990.37
2022-11-24T08:56:46.037Z,990.30
2022-11-24T08:57:46.012Z,990.34
2022-11-24T08:58:46.067Z,990.41
2022-11-24T08:59:45.958Z,990.40
2022-11-24T09:00:45.944Z,990.40
2022-11-24T09:01:45.949Z,990.42
2022-11-24T09:02:45.888Z,990.40
2022-11-24T09:03:50.468Z,990.43
2022-11-24T09:04:45.862Z,990.49
2022-11-24T09:05:53.249Z,990.47
2022-11-24T09:06:45.792Z,990.45
2022-11-24T09:07:45.831Z,990.46
2022-11-24T09:08:45.767Z,990.53
2022-11-24T09:09:45.722Z,990.57
2022-11-24T09:10:45.777Z,990.58
2022-11-24T09:11:45.675Z,990.50
2022-11-24T09:12:45.645Z,990.58
2022-11-24T09:13:45.629Z,990.57
2022-11-24T09:14:45.599Z,990.52
2022-11-24T09:15:45.582Z,990.54
2022-11-24T09:16:45.571Z,990.60
2022-11-24T09:17:45.532Z,990.59
2022-11-24T09:18:45.506Z,990.62
2022-11-24T09:19:45.492Z,990.63
2022-11-24T09:20:45.457Z,990.58
2022-11-24T09:21:45.444Z,990.61
2022-11-24T09:22:45.417Z,990.58
2022-11-24T09:23:45.391Z,990.66
2022-11-24T09:24:45.371Z,990.66
2022-11-24T09:25:45.344Z,990.64
2022-11-24T09:26:47.772Z,990.65
2022-11-24T09:27:45.297Z,990.67
2022-11-24T09:28:45.275Z,990.68
2022-11-24T09:29:45.244Z,990.58
2022-11-24T09:30:45.240Z,990.66
2022-11-24T09:31:45.197Z,990.62
2022-11-24T09:32:45.171Z,990.63
2022-11-24T09:33:45.154Z,990.61
2022-11-24T09:34:45.132Z,990.64
2022-11-24T09:35:45.116Z,990.57
2022-11-24T09:36:45.077Z,990.57
2022-11-24T09:37:45.063Z,990.61
2022-11-24T09:38:45.047Z,990.63
2022-11-24T09:39:45.010Z,990.61
2022-11-24T09:40:44.979Z,990.65
2022-11-24T09:41:44.980Z,990.64
2022-11-24T09:42:49.319Z,990.62
2022-11-24T09:43:44.916Z,990.54
2022-11-24T09:44:44.884Z,990.60
2022-11-24T09:46:44.922Z,990.62
2022-11-24T09:47:44.824Z,990.66
2022-11-24T09:48:44.801Z,990.66
2022-11-24T09:49:49.878Z,990.76
2022-11-24T09:50:44.745Z,990.78
2022-11-24T09:51:44.727Z,990.81
2022-11-24T09:52:44.699Z,990.87
2022-11-24T09:53:44.696Z,990.80
2022-11-24T09:54:44.648Z,990.84
2022-11-24T09:55:44.630Z,990.79
2022-11-24T09:56:44.603Z,990.81
2022-11-24T09:57:44.589Z,990.90
2022-11-24T09:58:44.560Z,990.87
2022-11-24T09:59:44.567Z,990.93
2022-11-24T10:00:44.515Z,990.91
2022-11-24T10:01:44.539Z,990.98
2022-11-24T10:02:44.468Z,991.02
2022-11-24T10:03:44.446Z,990.97
2022-11-24T10:04:44.516Z,991.06
2022-11-24T10:05:44.398Z,991.04
2022-11-24T10:06:44.412Z,991.00
2022-11-24T10:07:44.456Z,990.99
2022-11-24T10:08:44.325Z,991.10
2022-11-24T10:09:44.310Z,991.11
2022-11-24T10:10:44.332Z,991.04
2022-11-24T10:11:44.266Z,991.09
2022-11-24T10:12:44.243Z,991.08
2022-11-24T10:13:44.210Z,991.03
2022-11-24T10:14:44.192Z,991.14
2022-11-24T10:15:44.214Z,991.09
2022-11-24T10:16:44.148Z,991.18
2022-11-24T10:17:44.124Z,991.14
2022-11-24T10:18:44.090Z,991.13
2022-11-24T10:19:44.434Z,991.15
2022-11-24T10:20:44.060Z,991.08
2022-11-24T10:21:44.025Z,991.11
2022-11-24T10:22:44.001Z,991.09
2022-11-24T10:23:43.981Z,991.09
2022-11-24T10:24:43.952Z,991.14
2022-11-24T10:25:43.939Z,991.13
2022-11-24T10:26:43.909Z,991.18
2022-11-24T10:27:43.889Z,991.15
2022-11-24T10:28:43.857Z,991.19
2022-11-24T10:29:43.839Z,991.16
2022-11-24T10:30:43.961Z,991.18
2022-11-24T10:31:43.813Z,991.18
2022-11-24T10:32:43.763Z,991.18
2022-11-24T10:33:43.757Z,991.19
2022-11-24T10:34:43.719Z,991.30
2022-11-24T10:35:43.710Z,991.33
2022-11-24T10:36:43.680Z,991.24
2022-11-24T10:37:43.698Z,991.28
2022-11-24T10:38:43.638Z,991.31
2022-11-24T10:39:43.610Z,991.24
2022-11-24T10:40:59.119Z,991.25
2022-11-24T10:41:43.571Z,991.35
2022-11-24T10:42:43.546Z,991.30
2022-11-24T10:43:43.521Z,991.36
2022-11-24T10:44:43.495Z,991.39
2022-11-24T10:45:43.490Z,991.44
2022-11-24T10:46:43.585Z,991.36
2022-11-24T10:47:43.441Z,991.38
2022-11-24T10:48:43.424Z,991.40
2022-11-24T10:49:43.390Z,991.40
2022-11-24T10:50:43.363Z,991.38
2022-11-24T10:51:43.356Z,991.46
2022-11-24T10:52:43.370Z,991.44
2022-11-24T10:53:43.303Z,991.41
2022-11-24T10:54:43.277Z,991.42
2022-11-24T10:55:43.253Z,991.38
2022-11-24T10:56:43.228Z,991.39
2022-11-24T10:57:43.218Z,991.39
2022-11-24T10:58:43.189Z,991.35
2022-11-24T10:59:43.168Z,991.38
2022-11-24T11:00:43.137Z,991.31
2022-11-24T11:01:43.179Z,991.41
2022-11-24T11:02:43.136Z,991.34
2022-11-24T11:03:43.075Z,991.35
2022-11-24T11:04:43.051Z,991.35
2022-11-24T11:05:43.050Z,991.38
2022-11-24T11:06:43.002Z,991.34
2022-11-24T11:07:43.157Z,991.32
2022-11-24T11:08:42.981Z,991.36
2022-11-24T11:09:42.941Z,991.38
2022-11-24T11:10:42.917Z,991.39
2022-11-24T11:11:42.895Z,991.39
2022-11-24T11:12:44.684Z,991.45
2022-11-24T11:13:42.848Z,991.38
2022-11-24T11:14:42.827Z,991.42
2022-11-24T11:15:42.830Z,991.50
2022-11-24T11:16:42.785Z,991.44
2022-11-24T11:17:42.772Z,991.43
2022-11-24T11:18:42.737Z,991.51
2022-11-24T11:19:50.508Z,991.47
2022-11-24T11:20:42.692Z,991.52
2022-11-24T11:21:42.682Z,991.51
2022-11-24T11:22:42.667Z,991.53
2022-11-24T11:23:42.628Z,991.47
2022-11-24T11:24:42.605Z,991.48
2022-11-24T11:25:42.588Z,991.44
2022-11-24T11:26:42.561Z,991.52
2022-11-24T11:27:42.550Z,991.54
2022-11-24T11:28:42.508Z,991.55
2022-11-24T11:31:43.055Z,991.60
2022-11-24T11:34:42.396Z,991.62
2022-11-24T11:35:42.368Z,991.64
2022-11-24T11:36:42.340Z,991.69
2022-11-24T11:37:42.324Z,991.64
2022-11-24T11:38:42.295Z,991.59
2022-11-24T11:39:48.304Z,991.61
2022-11-24T11:40:42.246Z,991.66
2022-11-24T11:41:42.231Z,991.65
2022-11-24T11:43:42.190Z,991.63
2022-11-24T11:44:42.162Z,991.57
2022-11-24T11:45:42.170Z,991.55
2022-11-24T11:46:42.200Z,991.57
2022-11-24T11:47:42.097Z,991.60
2022-11-24T11:48:43.869Z,991.59
2022-11-24T11:49:42.056Z,991.62
2022-11-24T11:51:06.765Z,991.64
2022-11-24T11:51:42.089Z,991.62
2022-11-24T11:52:41.978Z,991.63
2022-11-24T11:53:41.963Z,991.65
2022-11-24T11:54:41.933Z,991.66
2022-11-24T11:55:46.591Z,991.70
2022-11-24T11:56:41.887Z,991.73
2022-11-24T11:57:41.871Z,991.69
2022-11-24T11:58:41.840Z,991.70
2022-11-24T11:59:41.828Z,991.67
2022-11-24T12:00:41.796Z,991.71
2022-11-24T12:01:41.778Z,991.74
2022-11-24T12:02:41.859Z,991.76
2022-11-24T12:03:42.005Z,991.76
2022-11-24T12:04:41.712Z,991.78
2022-11-24T12:05:41.684Z,991.75
2022-11-24T12:06:41.663Z,991.85
2022-11-24T12:07:41.728Z,991.79
2022-11-24T12:09:11.378Z,991.74
2022-11-24T12:09:41.610Z,991.79
2022-11-24T12:10:41.569Z,991.78
2022-11-24T12:11:41.563Z,991.76
2022-11-24T12:12:41.528Z,991.81
2022-11-24T12:13:41.511Z,991.79
2022-11-24T12:14:41.484Z,991.85
2022-11-24T12:15:41.520Z,991.85
2022-11-24T12:16:41.430Z,991.84
2022-11-24T12:17:41.413Z,991.83
2022-11-24T12:18:57.291Z,991.82
2022-11-24T12:19:41.390Z,991.77
2022-11-24T12:20:41.356Z,991.82
2022-11-24T12:21:41.331Z,991.83
2022-11-24T12:22:41.303Z,991.83
2022-11-24T12:23:41.289Z,991.80
2022-11-24T12:24:41.296Z,991.81
2022-11-24T12:25:41.246Z,991.89
2022-11-24T12:26:41.211Z,991.90
2022-11-24T12:27:41.193Z,991.93
2022-11-24T12:28:41.162Z,991.88
2022-11-24T12:29:41.145Z,991.89
2022-11-24T12:30:41.120Z,991.85
2022-11-24T12:31:41.129Z,991.87
2022-11-24T12:32:41.081Z,991.91
2022-11-24T12:33:43.973Z,991.94
2022-11-24T12:34:41.025Z,991.85